createdAt,value
2019-05-06T00:01:39.847Z,84.38
2019-05-06T00:04:10.539Z,85.31
2019-05-06T00:06:41.337Z,83.23
2019-05-06T00:09:14.593Z,83.57
2019-05-06T00:11:45.051Z,84.17
2019-05-06T00:14:16.220Z,81.62
2019-05-06T00:16:47.238Z,83.20
2019-05-06T00:19:18.060Z,83.88
2019-05-06T00:21:48.861Z,83.03
2019-05-06T00:24:19.552Z,83.84
2019-05-06T00:26:57.932Z,83.58
2019-05-06T00:29:29.659Z,83.49
2019-05-06T00:32:00.285Z,83.57
2019-05-06T00:34:34.094Z,82.84
2019-05-06T00:37:05.124Z,83.62
2019-05-06T00:39:46.683Z,84.25
2019-05-06T00:42:34.777Z,85.30
2019-05-06T00:45:07.865Z,85.49
2019-05-06T00:47:38.508Z,85.00
2019-05-06T00:50:09.632Z,86.38
2019-05-06T00:52:40.459Z,85.49
2019-05-06T00:55:13.577Z,84.56
2019-05-06T00:57:44.063Z,84.91
2019-05-06T01:00:18.918Z,84.60
2019-05-06T01:02:49.714Z,84.67
2019-05-06T01:05:24.453Z,84.85
2019-05-06T01:07:55.544Z,85.83
2019-05-06T01:10:26.142Z,85.25
2019-05-06T01:12:58.450Z,85.59
2019-05-06T01:15:30.255Z,85.40
2019-05-06T01:18:01.210Z,85.84
2019-05-06T01:20:33.946Z,85.46
2019-05-06T01:23:04.813Z,84.94
2019-05-06T01:25:35.539Z,85.63
2019-05-06T01:28:07.133Z,85.35
2019-05-06T01:30:38.047Z,85.62
2019-05-06T01:33:08.641Z,85.78
2019-05-06T01:35:40.953Z,85.83
2019-05-06T01:38:24.222Z,85.31
2019-05-06T01:40:56.408Z,84.97
2019-05-06T01:43:28.765Z,84.46
2019-05-06T01:45:59.506Z,84.92
2019-05-06T01:48:48.831Z,85.52
2019-05-06T01:51:21.271Z,86.14
2019-05-06T01:53:54.311Z,85.75
2019-05-06T01:56:24.340Z,85.11
2019-05-06T01:58:54.991Z,85.93
2019-05-06T02:01:25.674Z,86.32
2019-05-06T02:03:56.428Z,86.96
2019-05-06T02:06:27.238Z,87.71
2019-05-06T02:08:57.943Z,87.29
2019-05-06T02:11:28.633Z,86.40
2019-05-06T02:13:59.215Z,85.43
2019-05-06T02:16:29.983Z,86.06
2019-05-06T02:19:00.718Z,86.45
2019-05-06T02:21:33.669Z,85.47
2019-05-06T02:24:10.087Z,84.58
2019-05-06T02:26:43.665Z,83.88
2019-05-06T02:29:21.969Z,85.75
2019-05-06T02:32:15.940Z,86.04
2019-05-06T02:34:36.537Z,86.64
2019-05-06T02:37:11.300Z,86.60
2019-05-06T02:39:43.817Z,86.11
2019-05-06T02:42:14.997Z,87.22
2019-05-06T02:44:46.494Z,85.80
2019-05-06T02:47:37.023Z,84.23
2019-05-06T02:50:15.805Z,83.28
2019-05-06T02:52:46.496Z,83.95
2019-05-06T02:55:17.243Z,84.87
2019-05-06T02:57:47.872Z,85.02
2019-05-06T03:00:20.050Z,85.50
2019-05-06T03:02:53.850Z,85.01
2019-05-06T03:05:23.841Z,84.50
2019-05-06T03:07:57.681Z,85.29
2019-05-06T03:10:27.124Z,85.97
2019-05-06T03:12:57.817Z,86.43
2019-05-06T03:15:28.731Z,86.47
2019-05-06T03:17:59.595Z,86.53
2019-05-06T03:20:49.275Z,86.09
2019-05-06T03:23:24.157Z,85.91
2019-05-06T03:25:54.743Z,84.23
2019-05-06T03:28:25.741Z,83.89
2019-05-06T03:30:57.243Z,84.18
2019-05-06T03:33:47.793Z,84.21
2019-05-06T03:36:15.730Z,85.30
2019-05-06T03:38:33.743Z,86.38
2019-05-06T03:41:04.957Z,86.01
2019-05-06T03:43:36.043Z,85.76
2019-05-06T03:46:14.025Z,85.05
2019-05-06T03:49:04.044Z,85.01
2019-05-06T03:51:34.710Z,85.14
2019-05-06T03:54:05.759Z,84.55
2019-05-06T03:56:38.262Z,84.91
2019-05-06T03:59:10.003Z,84.89
2019-05-06T04:01:43.009Z,83.36
2019-05-06T04:04:13.470Z,81.96
2019-05-06T04:06:44.730Z,81.78
2019-05-06T04:09:16.197Z,82.36
2019-05-06T04:11:47.154Z,81.18
2019-05-06T04:14:18.798Z,81.29
2019-05-06T04:16:53.972Z,82.20
2019-05-06T04:19:43.724Z,80.92
2019-05-06T04:22:16.160Z,81.01
2019-05-06T04:24:49.272Z,81.16
2019-05-06T04:27:26.956Z,81.72
2019-05-06T04:29:57.771Z,81.13
2019-05-06T04:32:28.663Z,80.44
2019-05-06T04:35:04.090Z,80.35
2019-05-06T04:37:34.093Z,80.88
2019-05-06T04:40:06.517Z,80.91
2019-05-06T04:42:38.683Z,81.51
2019-05-06T04:45:09.445Z,81.31
2019-05-06T04:47:43.364Z,81.90
2019-05-06T04:50:14.444Z,82.54
2019-05-06T04:52:48.119Z,82.15
2019-05-06T04:55:19.017Z,83.64
2019-05-06T04:57:49.645Z,82.56
2019-05-06T05:00:23.258Z,82.31
2019-05-06T05:02:55.003Z,83.53
2019-05-06T05:05:25.887Z,80.56
2019-05-06T05:07:56.822Z,81.43
2019-05-06T05:10:35.541Z,82.12
2019-05-06T05:13:12.567Z,81.93
2019-05-06T05:16:03.471Z,79.58
2019-05-06T05:18:42.384Z,79.74
2019-05-06T05:21:12.584Z,79.97
2019-05-06T05:23:43.775Z,80.21
2019-05-06T05:26:14.794Z,79.14
2019-05-06T05:28:45.504Z,79.32
2019-05-06T05:31:18.305Z,79.27
2019-05-06T05:33:49.230Z,79.12
2019-05-06T05:36:20.728Z,78.24
2019-05-06T05:38:52.244Z,77.52
2019-05-06T05:41:24.622Z,78.07
2019-05-06T05:43:57.197Z,78.18
2019-05-06T05:46:28.053Z,77.50
2019-05-06T05:49:02.757Z,77.38
2019-05-06T05:51:33.637Z,76.88
2019-05-06T05:54:04.971Z,76.45
2019-05-06T05:56:35.777Z,74.92
2019-05-06T05:59:07.027Z,74.15
2019-05-06T06:01:37.937Z,73.21
2019-05-06T06:04:08.665Z,73.63
2019-05-06T06:06:42.235Z,73.89
2019-05-06T06:09:12.798Z,73.01
2019-05-06T06:11:48.652Z,74.08
2019-05-06T06:14:30.152Z,73.21
2019-05-06T06:17:19.027Z,71.83
2019-05-06T06:19:54.710Z,72.08
2019-05-06T06:22:27.384Z,70.51
2019-05-06T06:24:59.189Z,68.70
2019-05-06T06:27:33.233Z,68.18
2019-05-06T06:30:06.719Z,68.19
2019-05-06T06:32:38.064Z,68.08
2019-05-06T06:35:14.534Z,67.23
2019-05-06T06:38:02.708Z,68.02
2019-05-06T06:40:33.541Z,67.16
2019-05-06T06:43:06.405Z,65.39
2019-05-06T06:45:37.625Z,66.17
2019-05-06T06:48:09.356Z,65.43
2019-05-06T06:50:40.167Z,65.52
2019-05-06T06:53:12.662Z,64.34
2019-05-06T06:55:44.307Z,63.21
2019-05-06T06:58:17.263Z,61.65
2019-05-06T07:01:03.833Z,61.65
2019-05-06T07:03:38.200Z,59.22
2019-05-06T07:06:14.356Z,61.13
2019-05-06T07:08:45.282Z,58.62
2019-05-06T07:11:17.450Z,59.50
2019-05-06T07:13:53.985Z,50.28
2019-05-06T07:16:25.301Z,43.85
2019-05-06T07:18:57.335Z,38.61
2019-05-06T07:21:39.406Z,37.69
2019-05-06T07:24:12.971Z,37.29
2019-05-06T07:26:44.945Z,32.34
2019-05-06T07:29:23.469Z,30.77
2019-05-06T07:31:50.463Z,33.60
2019-05-06T07:34:22.872Z,30.26
2019-05-06T07:36:53.844Z,29.29
2019-05-06T07:39:25.218Z,29.87
2019-05-06T07:42:02.329Z,29.91
2019-05-06T07:44:52.940Z,29.11
2019-05-06T07:47:37.507Z,28.22
2019-05-06T07:50:08.648Z,27.48
2019-05-06T07:52:39.486Z,30.04
2019-05-06T07:55:12.021Z,27.35
2019-05-06T07:57:42.935Z,25.27
2019-05-06T08:00:14.480Z,25.63
2019-05-06T08:02:45.714Z,24.58
2019-05-06T08:05:17.656Z,23.05
2019-05-06T08:07:48.697Z,25.05
2019-05-06T08:10:21.926Z,22.29
2019-05-06T08:12:52.732Z,25.58
2019-05-06T08:15:25.874Z,24.17
2019-05-06T08:17:56.649Z,24.77
2019-05-06T08:20:39.620Z,23.80
2019-05-06T08:23:19.132Z,23.85
2019-05-06T08:25:57.688Z,22.75
2019-05-06T08:28:37.409Z,24.58
2019-05-06T08:30:57.598Z,25.15
2019-05-06T08:33:28.605Z,25.70
2019-05-06T08:36:11.704Z,23.47
2019-05-06T08:38:53.194Z,25.29
2019-05-06T08:41:26.864Z,24.35
2019-05-06T08:43:58.065Z,25.46
2019-05-06T08:46:29.265Z,24.65
2019-05-06T08:49:02.847Z,23.30
2019-05-06T08:51:44.179Z,23.90
2019-05-06T08:54:22.928Z,21.59
2019-05-06T08:56:53.870Z,22.83
2019-05-06T08:59:24.736Z,24.90
2019-05-06T09:02:03.234Z,24.32
2019-05-06T09:04:34.395Z,25.03
2019-05-06T09:07:06.857Z,26.88
2019-05-06T09:09:39.105Z,26.34
2019-05-06T09:12:13.029Z,27.98
2019-05-06T09:14:44.260Z,27.16
2019-05-06T09:17:15.061Z,29.66
2019-05-06T09:19:46.118Z,31.89
2019-05-06T09:22:17.400Z,30.66
2019-05-06T09:24:48.059Z,31.97
2019-05-06T09:27:22.495Z,31.24
2019-05-06T09:29:54.337Z,31.13
2019-05-06T09:32:28.133Z,28.74
2019-05-06T09:34:58.823Z,29.63
2019-05-06T09:37:29.642Z,30.72
2019-05-06T09:40:02.784Z,31.27
2019-05-06T09:42:35.768Z,30.12
2019-05-06T09:45:08.693Z,30.07
2019-05-06T09:47:44.096Z,29.74
2019-05-06T09:50:19.069Z,29.92
2019-05-06T09:52:49.777Z,32.70
2019-05-06T09:55:24.975Z,32.32
2019-05-06T09:57:57.501Z,31.46
2019-05-06T10:00:32.750Z,31.41
2019-05-06T10:03:03.840Z,31.19
2019-05-06T10:05:34.727Z,32.56
2019-05-06T10:08:05.557Z,31.18
2019-05-06T10:10:36.290Z,29.03
2019-05-06T10:13:06.918Z,29.61
2019-05-06T10:15:37.825Z,31.58
2019-05-06T10:18:12.649Z,31.28
2019-05-06T10:20:44.992Z,34.34
2019-05-06T10:23:16.721Z,33.47
2019-05-06T10:25:47.625Z,33.21
2019-05-06T10:28:33.659Z,32.50
2019-05-06T10:31:07.218Z,33.65
2019-05-06T10:33:39.562Z,32.72
2019-05-06T10:36:12.883Z,34.12
2019-05-06T10:38:55.116Z,30.93
2019-05-06T10:41:35.165Z,33.19
2019-05-06T10:44:11.879Z,31.96
2019-05-06T10:46:43.137Z,32.13
2019-05-06T10:49:15.728Z,32.92
2019-05-06T10:51:48.669Z,34.40
2019-05-06T10:54:22.909Z,33.85
2019-05-06T10:57:07.951Z,33.30
2019-05-06T10:59:42.800Z,32.21
2019-05-06T11:02:20.544Z,32.85
2019-05-06T11:04:52.939Z,32.66
